Time;durP1;ratioP1;P1;durP2;ratioP2;P2;SDS_P1;SDS_P2;PMS_P1;PMS_P2;Temp;Humidity;BMP_temperature;BMP_pressure;BME280_temperature;BME280_humidity;BME280_pressure;Samples;Min_cycle;Max_cycle;Signal;HPM_P1;HPM_P2
2023/06/09 00:01:44;;;;;;;7.82;3.92;;;;;;;19.65;54.11;101208.78;3580907;40;20075;-67
2023/06/09 00:04:13;;;;;;;9.75;3.90;;;;;;;19.62;54.44;101206.31;3582331;40;20049;-65
2023/06/09 00:06:40;;;;;;;6.88;3.17;;;;;;;19.60;54.41;101203.72;3582433;40;20131;-66
2023/06/09 00:09:07;;;;;;;5.30;3.40;;;;;;;19.58;53.87;101194.81;3582947;39;20793;-65
2023/06/09 00:11:33;;;;;;;8.82;3.90;;;;;;;19.13;54.53;101138.16;3581270;39;20157;-65
2023/06/09 00:13:59;;;;;;;8.35;3.80;;;;;;;19.46;54.06;101199.56;3581355;40;20060;-65
2023/06/09 00:16:25;;;;;;;8.55;4.03;;;;;;;19.42;53.85;101200.84;3580939;40;20309;-65
2023/06/09 00:18:52;;;;;;;8.65;3.88;;;;;;;19.39;53.50;101205.72;3580729;39;20052;-65
2023/06/09 00:21:21;;;;;;;8.23;3.72;;;;;;;19.34;54.32;101205.28;3581690;40;20051;-66
2023/06/09 00:23:48;;;;;;;5.15;3.67;;;;;;;19.04;54.30;101155.34;3581197;40;20063;-66
2023/06/09 00:26:13;;;;;;;7.47;3.80;;;;;;;19.09;54.11;101163.09;3580734;39;20064;-65
2023/06/09 00:28:40;;;;;;;8.27;3.60;;;;;;;19.22;54.26;101190.94;3582352;39;20059;-65
2023/06/09 00:31:06;;;;;;;8.02;3.85;;;;;;;19.20;54.20;101190.22;3583848;40;20048;-65
2023/06/09 00:33:31;;;;;;;8.40;4.20;;;;;;;19.12;54.84;101188.19;3579673;40;20088;-65
2023/06/09 00:35:57;;;;;;;7.30;3.80;;;;;;;19.10;54.33;101190.22;3580560;40;20443;-66
2023/06/09 00:38:23;;;;;;;7.07;3.55;;;;;;;19.06;55.02;101194.22;3581437;39;20060;-63
2023/06/09 00:40:52;;;;;;;6.85;3.92;;;;;;;19.04;54.55;101189.91;3582932;40;20055;-64
2023/06/09 00:43:18;;;;;;;6.50;3.72;;;;;;;19.02;55.44;101185.44;3583572;40;20050;-64
2023/06/09 00:45:44;;;;;;;6.10;3.85;;;;;;;18.99;54.78;101193.03;3584583;40;20056;-64
2023/06/09 00:48:11;;;;;;;8.35;3.80;;;;;;;18.95;54.76;101186.16;3582278;39;20063;-64
2023/06/09 00:50:38;;;;;;;8.48;4.35;;;;;;;18.93;55.08;101188.16;3581885;39;20066;-64
2023/06/09 00:53:07;;;;;;;8.20;4.10;;;;;;;18.86;55.58;101190.59;3585327;39;20059;-65
2023/06/09 00:55:38;;;;;;;7.47;3.53;;;;;;;18.81;55.37;101187.44;3580971;40;20055;-64
2023/06/09 00:58:03;;;;;;;7.55;4.10;;;;;;;18.68;54.66;101171.31;3584513;39;20051;-64
2023/06/09 01:00:29;;;;;;;7.20;4.20;;;;;;;18.67;55.59;101191.34;3580216;40;20063;-64
2023/06/09 01:03:02;;;;;;;6.05;4.30;;;;;;;18.63;55.24;101189.06;3582653;40;20056;-64
2023/06/09 01:05:39;;;;;;;9.80;4.40;;;;;;;18.30;55.27;101137.50;3580594;40;20060;-65
2023/06/09 01:08:41;;;;;;;7.82;4.25;;;;;;;18.55;55.51;101177.00;3582713;39;20274;-65
2023/06/09 01:11:48;;;;;;;9.93;4.30;;;;;;;18.40;56.11;101161.19;3580977;40;20056;-64
2023/06/09 01:14:27;;;;;;;10.38;4.15;;;;;;;18.45;55.35;101181.53;3579739;40;20055;-64
2023/06/09 01:17:08;;;;;;;7.93;4.00;;;;;;;18.41;56.46;101177.38;3580546;40;20111;-65
2023/06/09 01:19:45;;;;;;;6.95;4.00;;;;;;;18.38;56.64;101176.78;3582703;39;20137;-66
2023/06/09 01:22:48;;;;;;;7.25;3.85;;;;;;;18.34;56.74;101170.75;3581626;39;20095;-66
2023/06/09 01:25:37;;;;;;;8.23;4.53;;;;;;;18.29;56.43;101170.28;3580637;40;20406;-66
2023/06/09 01:28:20;;;;;;;8.05;4.10;;;;;;;18.26;56.27;101168.69;3580555;39;20040;-65
2023/06/09 01:30:49;;;;;;;6.82;4.35;;;;;;;18.19;55.82;101153.94;3578653;40;20056;-65
2023/06/09 01:33:25;;;;;;;6.32;3.88;;;;;;;18.15;56.46;101160.66;3580061;39;20290;-65
2023/06/09 01:35:53;;;;;;;8.85;4.88;;;;;;;18.18;56.11;101164.97;3581458;39;20056;-65
2023/06/09 01:38:22;;;;;;;7.32;4.28;;;;;;;18.15;55.62;101163.38;3581541;39;20144;-65
2023/06/09 01:40:49;;;;;;;6.45;4.15;;;;;;;18.11;55.53;101164.66;3583643;40;20051;-66
2023/06/09 01:43:15;;;;;;;8.13;4.72;;;;;;;18.09;56.63;101166.63;3584612;40;20060;-65
2023/06/09 01:45:40;;;;;;;9.23;4.50;;;;;;;18.03;55.90;101167.16;3586060;39;20097;-65
2023/06/09 01:48:24;;;;;;;7.93;4.28;;;;;;;17.97;56.79;101164.97;3584067;39;20301;-65
2023/06/09 01:50:59;;;;;;;10.50;4.20;;;;;;;17.93;56.76;101166.25;3583652;39;20059;-65
2023/06/09 01:53:37;;;;;;;8.23;4.53;;;;;;;17.91;56.77;101158.22;3582195;40;21562;-65
2023/06/09 01:56:40;;;;;;;7.03;4.40;;;;;;;17.85;56.47;101154.16;3580417;40;20583;-65
2023/06/09 01:59:19;;;;;;;8.50;4.88;;;;;;;17.82;57.13;101151.75;3582017;39;20060;-65
2023/06/09 02:01:50;;;;;;;9.55;4.90;;;;;;;17.71;57.25;101146.34;3579561;40;20055;-66
2023/06/09 02:04:23;;;;;;;14.00;4.43;;;;;;;17.76;57.02;101160.41;3586017;39;20062;-66
2023/06/09 02:06:51;;;;;;;7.53;4.40;;;;;;;17.74;57.64;101156.09;3580082;40;20057;-65
2023/06/09 02:09:18;;;;;;;9.35;4.70;;;;;;;17.70;56.74;101165.50;3577122;40;20266;-65
2023/06/09 02:11:51;;;;;;;7.95;4.68;;;;;;;17.68;56.38;101152.03;3579276;40;20053;-65
2023/06/09 02:14:17;;;;;;;8.45;5.28;;;;;;;17.64;56.95;101150.59;3572680;40;20306;-66
2023/06/09 02:16:43;;;;;;;7.68;4.45;;;;;;;17.62;56.94;101147.97;3581533;39;20060;-65
2023/06/09 02:19:12;;;;;;;8.40;4.60;;;;;;;17.58;57.65;101151.13;3582338;40;20060;-65
2023/06/09 02:21:38;;;;;;;11.55;4.68;;;;;;;17.54;57.79;101146.94;3581515;40;20064;-65
2023/06/09 02:24:05;;;;;;;9.73;5.15;;;;;;;17.51;58.14;101141.78;3584202;40;20379;-65
2023/06/09 02:26:31;;;;;;;8.88;5.55;;;;;;;17.47;57.76;101141.13;3581469;40;20572;-65
2023/06/09 02:28:57;;;;;;;11.57;5.78;;;;;;;17.44;57.53;101143.25;3581629;40;20086;-65
2023/06/09 02:31:23;;;;;;;8.90;5.47;;;;;;;17.38;58.46;101140.09;3578780;39;20051;-65
2023/06/09 02:33:48;;;;;;;10.68;5.07;;;;;;;17.40;58.38;101145.38;3578429;40;20060;-66
2023/06/09 02:36:14;;;;;;;8.20;4.93;;;;;;;17.34;58.13;101132.31;3578959;40;20761;-65
2023/06/09 02:38:39;;;;;;;8.55;5.72;;;;;;;17.33;58.24;101141.47;3581686;39;20067;-66
2023/06/09 02:41:05;;;;;;;11.35;5.78;;;;;;;17.28;58.06;101139.13;3581781;39;20059;-65
2023/06/09 02:43:31;;;;;;;11.38;5.15;;;;;;;17.25;58.57;101139.41;3579247;39;20067;-66
2023/06/09 02:45:56;;;;;;;9.48;5.45;;;;;;;17.25;58.52;101143.97;3583301;39;20420;-65
2023/06/09 02:48:22;;;;;;;8.55;5.30;;;;;;;17.21;58.69;101137.09;3578667;40;20059;-66
2023/06/09 02:50:47;;;;;;;7.90;5.25;;;;;;;17.17;58.31;101136.47;3580243;40;20232;-66
2023/06/09 02:53:13;;;;;;;8.52;5.40;;;;;;;17.14;58.91;101132.16;3581660;40;20151;-66
2023/06/09 02:55:39;;;;;;;9.73;5.13;;;;;;;16.86;58.87;101087.47;3578672;40;20082;-66
2023/06/09 02:58:05;;;;;;;8.13;5.25;;;;;;;16.78;58.44;101080.94;3580572;39;20052;-66
2023/06/09 03:00:31;;;;;;;7.68;4.50;;;;;;;17.05;58.93;101132.94;3578529;39;20060;-66
2023/06/09 03:02:57;;;;;;;7.78;4.85;;;;;;;17.01;58.76;101131.47;3580798;40;20062;-66
2023/06/09 03:05:24;;;;;;;11.90;5.40;;;;;;;16.98;59.84;101139.88;3578559;40;20117;-66
2023/06/09 03:07:50;;;;;;;11.55;5.20;;;;;;;16.31;59.48;101035.06;3577934;40;20087;-66
2023/06/09 03:10:18;;;;;;;11.38;5.55;;;;;;;16.94;59.27;101144.72;3575084;40;20412;-65
2023/06/09 03:12:43;;;;;;;11.23;5.38;;;;;;;16.93;59.61;101142.13;3579720;40;20052;-66
2023/06/09 03:15:09;;;;;;;7.22;5.10;;;;;;;16.90;59.19;101145.97;3578262;39;20367;-65
2023/06/09 03:17:35;;;;;;;10.63;5.47;;;;;;;16.86;60.29;101152.63;3578183;40;20048;-65
2023/06/09 03:20:01;;;;;;;8.30;5.53;;;;;;;16.85;59.88;101140.06;3582317;40;20250;-64
2023/06/09 03:22:27;;;;;;;9.32;5.53;;;;;;;16.83;60.10;101142.03;3579700;40;20145;-65
2023/06/09 03:24:53;;;;;;;12.80;5.53;;;;;;;16.78;59.81;101152.41;3579777;40;20125;-65
2023/06/09 03:27:18;;;;;;;13.07;6.28;;;;;;;16.84;60.99;101146.50;3580440;39;20052;-65
2023/06/09 03:29:44;;;;;;;9.57;5.28;;;;;;;16.67;60.87;101133.41;3569656;40;20348;-65
2023/06/09 03:32:10;;;;;;;12.27;5.80;;;;;;;16.72;60.48;101155.59;3579408;40;20070;-65
2023/06/09 03:34:35;;;;;;;10.07;5.72;;;;;;;16.46;60.95;101120.63;3582009;40;20431;-65
2023/06/09 03:37:03;;;;;;;10.77;7.82;;;;;;;16.68;60.57;101151.41;3586336;39;20052;-65
2023/06/09 03:39:28;;;;;;;11.93;6.35;;;;;;;16.66;60.70;101150.69;3582776;39;20477;-65
2023/06/09 03:41:55;;;;;;;11.35;5.50;;;;;;;16.61;60.93;101139.31;3580662;39;20059;-65
2023/06/09 03:44:22;;;;;;;12.50;5.63;;;;;;;16.58;61.64;101151.28;3579224;40;20437;-65
2023/06/09 03:46:47;;;;;;;10.80;6.22;;;;;;;16.56;61.02;101163.28;3580430;40;20206;-66
2023/06/09 03:49:13;;;;;;;11.80;5.35;;;;;;;16.55;61.82;101166.97;3580153;40;20366;-65
2023/06/09 03:51:38;;;;;;;9.93;5.68;;;;;;;16.56;61.99;101168.72;3580989;40;20071;-66
2023/06/09 03:54:04;;;;;;;10.90;5.85;;;;;;;16.55;61.99;101178.69;3578994;40;20121;-65
2023/06/09 03:56:30;;;;;;;12.30;5.93;;;;;;;16.55;62.34;101169.69;3582068;39;20059;-66
2023/06/09 03:58:56;;;;;;;11.77;5.57;;;;;;;16.55;62.27;101161.53;3581541;39;20347;-66
2023/06/09 04:01:22;;;;;;;12.57;6.05;;;;;;;16.52;61.98;101165.38;3579569;40;20152;-65
2023/06/09 04:03:48;;;;;;;11.57;5.72;;;;;;;16.51;62.34;101160.06;3581883;40;20052;-65
2023/06/09 04:06:13;;;;;;;13.50;6.07;;;;;;;16.52;62.57;101178.94;3578483;40;20063;-65
2023/06/09 04:08:39;;;;;;;8.85;5.57;;;;;;;16.54;62.37;101167.97;3583391;39;20092;-65
2023/06/09 04:11:05;;;;;;;9.82;5.70;;;;;;;16.57;62.51;101162.28;3582274;39;20067;-65
2023/06/09 04:13:30;;;;;;;12.02;6.47;;;;;;;16.52;62.25;101165.38;3578728;40;20059;-65
2023/06/09 04:15:56;;;;;;;11.35;5.95;;;;;;;16.61;62.39;101171.91;3577977;40;20071;-66
2023/06/09 04:18:23;;;;;;;13.55;6.03;;;;;;;16.61;62.34;101172.75;3582160;40;20294;-66
2023/06/09 04:20:48;;;;;;;13.10;5.93;;;;;;;16.64;62.36;101177.06;3579471;40;20347;-66
2023/06/09 04:23:14;;;;;;;13.13;5.95;;;;;;;16.65;62.12;101176.06;3578133;40;20129;-67
2023/06/09 04:25:39;;;;;;;13.90;6.80;;;;;;;16.67;62.38;101171.41;3581436;39;20059;-68
2023/06/09 04:28:05;;;;;;;10.02;5.78;;;;;;;16.70;62.43;101176.56;3579312;40;20323;-66
2023/06/09 04:30:34;;;;;;;12.40;6.00;;;;;;;16.70;62.51;101179.28;3578601;40;20060;-66
2023/06/09 04:32:59;;;;;;;11.45;5.85;;;;;;;16.70;62.36;101182.88;3581577;39;20303;-66
2023/06/09 04:35:25;;;;;;;10.27;5.70;;;;;;;16.73;62.18;101180.91;3580262;39;20070;-67
2023/06/09 04:37:51;;;;;;;11.75;5.60;;;;;;;16.76;61.85;101177.97;3585114;39;20055;-66
2023/06/09 04:40:21;;;;;;;11.98;5.32;;;;;;;16.76;62.39;101186.97;3579285;39;20487;-65
2023/06/09 04:42:51;;;;;;;10.98;5.32;;;;;;;16.12;62.60;101070.09;3583483;40;20063;-66
2023/06/09 04:45:27;;;;;;;11.13;5.68;;;;;;;16.81;62.54;101179.31;3580461;40;20062;-66
2023/06/09 04:48:02;;;;;;;10.02;5.57;;;;;;;16.81;61.92;101173.88;3579606;40;20406;-66
2023/06/09 04:50:37;;;;;;;9.77;5.63;;;;;;;16.88;62.13;101176.97;3581781;40;20314;-66
2023/06/09 04:53:03;;;;;;;11.35;5.60;;;;;;;16.85;62.10;101175.34;3580628;39;20130;-66
2023/06/09 04:55:30;;;;;;;10.57;5.70;;;;;;;16.89;61.87;101176.81;3582184;40;20067;-66
2023/06/09 04:57:56;;;;;;;10.77;5.85;;;;;;;16.92;61.95;101179.28;3580011;39;20056;-65
2023/06/09 05:00:29;;;;;;;9.07;5.13;;;;;;;16.90;62.22;101173.13;3578803;40;20303;-66
2023/06/09 05:02:59;;;;;;;15.15;5.32;;;;;;;16.93;61.35;101161.97;3584821;40;20109;-65
2023/06/09 05:05:25;;;;;;;11.48;5.45;;;;;;;17.03;62.37;101177.50;3579554;40;20347;-66
2023/06/09 05:07:51;;;;;;;12.07;5.95;;;;;;;17.06;61.88;101188.13;3582965;39;20060;-65
2023/06/09 05:10:17;;;;;;;8.73;5.55;;;;;;;17.12;62.11;101183.03;3577520;40;20068;-65
2023/06/09 05:12:43;;;;;;;11.88;6.53;;;;;;;17.16;62.17;101189.09;3577563;40;20133;-65
2023/06/09 05:15:09;;;;;;;13.18;6.22;;;;;;;17.20;62.42;101184.28;3577186;40;20048;-66
2023/06/09 05:17:41;;;;;;;14.25;6.15;;;;;;;17.24;62.29;101188.44;3579082;40;20126;-65
2023/06/09 05:20:11;;;;;;;11.77;5.80;;;;;;;17.28;61.96;101182.59;3584961;39;20467;-67
2023/06/09 05:22:37;;;;;;;14.23;6.25;;;;;;;17.37;61.74;101189.13;3575180;40;20056;-65
2023/06/09 05:25:08;;;;;;;11.00;6.18;;;;;;;17.45;61.15;101185.78;3581585;40;20092;-65
2023/06/09 05:27:33;;;;;;;13.65;6.55;;;;;;;17.46;61.39;101191.06;3580995;40;20395;-66
2023/06/09 05:29:59;;;;;;;10.60;5.97;;;;;;;17.46;61.82;101192.94;3579359;39;20055;-65
2023/06/09 05:32:25;;;;;;;10.57;6.18;;;;;;;16.88;61.50;101088.22;3577322;39;20604;-65
2023/06/09 05:34:50;;;;;;;12.13;6.10;;;;;;;17.59;61.69;101190.88;3584018;39;20052;-66
2023/06/09 05:37:16;;;;;;;13.20;7.00;;;;;;;17.64;62.05;101191.38;3582818;40;20413;-65
2023/06/09 05:39:42;;;;;;;11.45;6.53;;;;;;;17.69;62.07;101197.25;3580285;39;20094;-65
2023/06/09 05:42:09;;;;;;;15.90;6.50;;;;;;;17.58;61.62;101167.41;3579091;40;20068;-65
2023/06/09 05:44:35;;;;;;;11.57;7.07;;;;;;;17.78;61.38;101190.19;3577439;40;20347;-66
2023/06/09 05:47:00;;;;;;;11.75;6.40;;;;;;;17.86;62.60;101193.13;3579508;40;20217;-67
2023/06/09 05:49:26;;;;;;;17.13;6.93;;;;;;;17.95;62.37;101202.31;3582689;39;20137;-66
2023/06/09 05:51:52;;;;;;;10.40;6.60;;;;;;;18.02;61.67;101200.81;3578805;40;20056;-66
2023/06/09 05:54:18;;;;;;;11.23;6.97;;;;;;;18.10;62.02;101195.53;3577290;40;20052;-66
2023/06/09 05:56:45;;;;;;;10.25;6.63;;;;;;;18.18;61.51;101194.91;3577394;40;20148;-67
2023/06/09 05:59:12;;;;;;;12.45;7.25;;;;;;;18.27;61.54;101196.81;3578873;39;20044;-66
2023/06/09 06:01:37;;;;;;;11.93;7.18;;;;;;;18.35;61.05;101193.38;3580869;40;20052;-66
2023/06/09 06:04:03;;;;;;;12.75;7.30;;;;;;;18.48;61.83;101199.47;3582140;39;20527;-66
2023/06/09 06:06:30;;;;;;;12.20;7.28;;;;;;;18.60;60.98;101194.78;3581949;40;20056;-66
2023/06/09 06:08:56;;;;;;;12.52;7.45;;;;;;;18.71;61.48;101186.50;3579280;40;20301;-66
2023/06/09 06:11:22;;;;;;;15.27;7.55;;;;;;;18.52;60.82;101141.88;3583467;40;20055;-66
2023/06/09 06:13:47;;;;;;;12.45;7.45;;;;;;;18.92;60.13;101189.16;3580471;40;20052;-66
2023/06/09 06:16:13;;;;;;;11.88;7.40;;;;;;;19.09;60.30;101183.03;3582543;39;20302;-66
2023/06/09 06:18:38;;;;;;;12.55;7.80;;;;;;;19.21;60.32;101187.34;3577992;40;20056;-66
2023/06/09 06:21:05;;;;;;;12.98;8.18;;;;;;;19.39;59.40;101195.69;3580762;40;20059;-66
2023/06/09 06:23:31;;;;;;;14.27;7.82;;;;;;;19.53;59.16;101191.66;3579107;40;20040;-66
2023/06/09 06:25:57;;;;;;;12.85;7.88;;;;;;;19.74;58.82;101198.88;3586081;39;20117;-66
2023/06/09 06:28:23;;;;;;;12.80;7.32;;;;;;;19.80;59.34;101203.75;3586303;39;20064;-66
2023/06/09 06:30:50;;;;;;;14.25;8.45;;;;;;;19.90;59.21;101197.25;3584003;39;20052;-67
2023/06/09 06:33:15;;;;;;;12.23;7.35;;;;;;;20.04;58.77;101198.66;3583748;40;20286;-66
2023/06/09 06:35:41;;;;;;;14.85;8.30;;;;;;;20.16;58.07;101192.00;3585259;40;20293;-66
2023/06/09 06:38:07;;;;;;;13.82;7.90;;;;;;;20.11;57.88;101168.91;3585896;39;20062;-67
2023/06/09 06:40:33;;;;;;;13.48;8.23;;;;;;;20.41;57.33;101201.41;3585505;40;20350;-66
2023/06/09 06:42:59;;;;;;;11.52;7.72;;;;;;;20.53;57.78;101199.41;3583863;40;20063;-66
2023/06/09 06:45:26;;;;;;;11.38;7.43;;;;;;;20.72;57.30;101195.72;3582210;39;20079;-67
2023/06/09 06:47:55;;;;;;;15.55;8.38;;;;;;;20.90;57.28;101193.03;3585859;40;20052;-66
2023/06/09 06:50:21;;;;;;;13.13;7.65;;;;;;;21.05;56.11;101190.63;3576774;40;20389;-66
2023/06/09 06:52:48;;;;;;;17.00;8.45;;;;;;;21.21;55.54;101189.94;3585404;40;20534;-66
2023/06/09 06:55:14;;;;;;;15.48;7.97;;;;;;;21.37;55.13;101184.66;3584320;40;20059;-68
2023/06/09 06:57:40;;;;;;;13.27;7.85;;;;;;;21.50;55.50;101186.97;3585817;40;20060;-67
2023/06/09 07:00:16;;;;;;;14.18;7.60;;;;;;;21.73;55.50;101190.97;3574343;40;20355;-68
2023/06/09 07:02:46;;;;;;;15.65;7.95;;;;;;;21.88;54.44;101190.38;3580557;40;20084;-67
2023/06/09 07:05:13;;;;;;;14.30;8.15;;;;;;;21.91;54.02;101177.22;3583558;40;20055;-67
2023/06/09 07:07:39;;;;;;;14.65;8.20;;;;;;;22.13;53.49;101194.16;3585556;40;20047;-67
2023/06/09 07:10:09;;;;;;;13.80;7.60;;;;;;;22.29;53.04;101196.16;3584087;40;20438;-66
2023/06/09 07:12:34;;;;;;;11.45;8.20;;;;;;;22.45;52.92;101202.59;3585043;39;20095;-67
2023/06/09 07:15:01;;;;;;;14.45;7.65;;;;;;;22.61;52.43;101207.31;3583032;40;20267;-67
2023/06/09 07:17:27;;;;;;;16.10;8.15;;;;;;;22.70;51.67;101205.44;3584571;40;20129;-67
2023/06/09 07:19:52;;;;;;;15.18;7.97;;;;;;;22.07;52.03;101090.75;3585383;40;20047;-67
2023/06/09 07:22:18;;;;;;;14.95;7.85;;;;;;;22.71;51.50;101193.47;3584464;39;20122;-67
2023/06/09 07:24:44;;;;;;;16.50;7.95;;;;;;;22.88;52.60;101203.47;3584813;39;20048;-67
2023/06/09 07:27:10;;;;;;;13.65;7.80;;;;;;;23.03;51.50;101200.13;3584320;39;20087;-67
2023/06/09 07:29:35;;;;;;;12.65;7.40;;;;;;;23.21;50.82;101213.69;3586551;39;20052;-67
2023/06/09 07:32:05;;;;;;;12.00;7.65;;;;;;;23.39;51.99;101203.44;3586176;40;20052;-67
2023/06/09 07:34:31;;;;;;;12.07;7.38;;;;;;;23.57;51.05;101203.31;3587022;40;20052;-67
2023/06/09 07:36:59;;;;;;;14.52;7.97;;;;;;;23.72;51.01;101212.59;3585715;40;20055;-67
2023/06/09 07:39:25;;;;;;;11.07;7.93;;;;;;;23.77;50.07;101209.34;3585431;39;20051;-67
2023/06/09 07:41:51;;;;;;;14.00;7.03;;;;;;;23.80;49.52;101207.09;3585399;39;20062;-67
2023/06/09 07:44:17;;;;;;;11.45;7.43;;;;;;;23.97;49.42;101212.59;3584330;40;20056;-66
2023/06/09 07:46:42;;;;;;;14.27;7.28;;;;;;;24.15;48.74;101212.41;3584560;40;20179;-66
2023/06/09 07:49:08;;;;;;;13.18;7.78;;;;;;;24.20;48.93;101208.09;3583945;39;20286;-66
2023/06/09 07:51:37;;;;;;;13.02;7.30;;;;;;;24.20;48.14;101197.13;3584960;40;20141;-66
2023/06/09 07:54:06;;;;;;;11.02;7.05;;;;;;;24.38;49.74;101209.75;3584440;40;20172;-66
2023/06/09 07:56:32;;;;;;;8.63;6.43;;;;;;;24.47;48.16;101195.00;3583146;39;20399;-66
2023/06/09 07:58:58;;;;;;;11.45;7.25;;;;;;;24.74;47.40;101202.81;3584629;39;20121;-68
2023/06/09 08:01:25;;;;;;;11.45;7.00;;;;;;;24.92;46.70;101198.94;3583675;40;20107;-68
2023/06/09 08:03:51;;;;;;;9.60;6.47;;;;;;;25.07;46.31;101208.13;3584909;40;20388;-68
2023/06/09 08:06:16;;;;;;;13.35;7.25;;;;;;;25.23;47.48;101193.47;3583591;40;20059;-68
2023/06/09 08:08:43;;;;;;;12.85;6.63;;;;;;;25.49;45.80;101195.84;3585969;39;20060;-68
2023/06/09 08:11:11;;;;;;;11.85;7.22;;;;;;;25.46;46.29;101196.22;3584398;40;20047;-67
2023/06/09 08:13:36;;;;;;;8.23;6.47;;;;;;;25.47;45.26;101196.06;3576571;40;20075;-68
2023/06/09 08:16:02;;;;;;;10.07;6.47;;;;;;;25.69;46.48;101197.09;3582774;40;20110;-68
2023/06/09 08:18:27;;;;;;;10.95;7.28;;;;;;;25.82;45.18;101190.97;3585296;39;20138;-68
2023/06/09 08:20:53;;;;;;;11.43;6.43;;;;;;;26.00;44.61;101193.38;3586706;39;20294;-68
2023/06/09 08:23:22;;;;;;;9.48;6.28;;;;;;;26.15;44.81;101194.25;3584768;39;20051;-68
2023/06/09 08:25:50;;;;;;;9.38;6.57;;;;;;;26.22;43.93;101176.97;3584775;40;20054;-68
2023/06/09 08:28:15;;;;;;;7.65;6.03;;;;;;;26.46;43.63;101184.97;3584699;39;20051;-68
2023/06/09 08:30:41;;;;;;;12.18;6.95;;;;;;;26.49;42.47;101178.25;3584761;40;20063;-69
2023/06/09 08:33:07;;;;;;;9.10;6.45;;;;;;;26.55;41.69;101186.63;3584915;40;20123;-69
2023/06/09 08:35:33;;;;;;;10.32;5.55;;;;;;;26.62;41.91;101182.03;3586177;40;20063;-69
2023/06/09 08:38:00;;;;;;;8.55;5.88;;;;;;;26.95;41.62;101186.25;3585951;39;20330;-69
2023/06/09 08:40:25;;;;;;;10.43;5.45;;;;;;;27.13;41.64;101177.56;3583603;40;20070;-69
2023/06/09 08:42:55;;;;;;;11.48;5.70;;;;;;;27.34;41.66;101176.75;3586211;40;20059;-69
2023/06/09 08:45:22;;;;;;;7.43;5.45;;;;;;;27.40;40.03;101163.00;3585164;40;20063;-69
2023/06/09 08:47:53;;;;;;;9.18;6.10;;;;;;;27.69;41.11;101186.88;3575975;40;20059;-69
2023/06/09 08:50:21;;;;;;;8.43;5.75;;;;;;;27.82;41.74;101188.09;3581448;39;20059;-70
2023/06/09 08:52:48;;;;;;;8.38;5.65;;;;;;;27.89;39.67;101189.84;3580220;39;20362;-67
2023/06/09 08:55:14;;;;;;;8.48;6.05;;;;;;;27.94;39.58;101181.81;3578703;40;20516;-68
2023/06/09 08:57:42;;;;;;;10.82;6.43;;;;;;;27.67;40.03;101136.50;3581357;40;20092;-68
2023/06/09 09:00:11;;;;;;;8.25;5.25;;;;;;;27.85;38.77;101149.88;3581931;40;20056;-68
2023/06/09 09:02:38;;;;;;;10.63;5.55;;;;;;;28.06;37.96;101178.50;3580327;40;20118;-68
2023/06/09 09:05:04;;;;;;;13.60;5.80;;;;;;;28.32;38.99;101184.19;3579383;39;20106;-68
2023/06/09 09:07:30;;;;;;;7.68;5.32;;;;;;;28.38;37.98;101177.84;3581590;40;20083;-68
2023/06/09 09:09:58;;;;;;;7.63;5.70;;;;;;;28.38;39.10;101177.84;3578978;40;20053;-69
2023/06/09 09:12:24;;;;;;;8.73;5.53;;;;;;;28.52;38.72;101184.34;3579764;40;20052;-69
2023/06/09 09:14:49;;;;;;;6.03;5.35;;;;;;;28.69;38.62;101179.31;3581370;39;20114;-68
2023/06/09 09:17:16;;;;;;;7.57;5.68;;;;;;;28.95;37.12;101172.19;3578997;39;20092;-69
2023/06/09 09:19:45;;;;;;;7.85;5.65;;;;;;;28.93;36.55;101175.19;3582302;39;20388;-68
2023/06/09 09:22:12;;;;;;;7.82;5.78;;;;;;;28.98;36.89;101171.78;3582384;40;20102;-69
2023/06/09 09:24:45;;;;;;;8.77;5.90;;;;;;;29.19;36.52;101171.66;3579924;40;20048;-68
2023/06/09 09:27:21;;;;;;;9.93;6.00;;;;;;;29.12;37.64;101135.66;3578426;40;20122;-69
2023/06/09 09:29:47;;;;;;;8.32;6.13;;;;;;;29.34;36.92;101161.25;3579720;40;20382;-68
2023/06/09 09:32:13;;;;;;;10.57;5.68;;;;;;;29.48;36.58;101166.81;3577055;40;20051;-69
2023/06/09 09:34:46;;;;;;;10.07;6.03;;;;;;;29.63;35.99;101161.13;3584418;39;20618;-69
2023/06/09 09:37:16;;;;;;;10.10;5.57;;;;;;;29.77;34.99;101152.56;3579214;39;20048;-69
2023/06/09 09:39:53;;;;;;;5.97;5.18;;;;;;;29.84;35.05;101164.53;3578813;40;20433;-68
2023/06/09 09:42:21;;;;;;;7.57;5.13;;;;;;;30.05;34.45;101163.44;3581609;40;20110;-68
2023/06/09 09:44:51;;;;;;;9.35;4.90;;;;;;;30.21;34.04;101153.84;3570250;40;20052;-68
2023/06/09 09:47:18;;;;;;;6.05;5.20;;;;;;;30.14;33.08;101158.53;3582412;39;20056;-68
2023/06/09 09:49:56;;;;;;;6.40;5.13;;;;;;;30.17;35.46;101144.22;3569453;40;20054;-67
2023/06/09 09:52:31;;;;;;;5.38;4.78;;;;;;;30.28;32.32;101157.44;3581919;40;20425;-67
2023/06/09 09:55:04;;;;;;;5.80;4.65;;;;;;;29.92;32.28;101108.00;3583064;40;20059;-68
2023/06/09 09:57:31;;;;;;;6.72;4.43;;;;;;;30.43;33.07;101150.81;3580953;40;20051;-67
2023/06/09 10:00:07;;;;;;;5.53;4.57;;;;;;;30.36;30.65;101152.75;3584538;39;20067;-68
2023/06/09 10:02:36;;;;;;;5.63;4.70;;;;;;;30.21;32.74;101151.06;3581451;39;20111;-68
2023/06/09 10:05:07;;;;;;;5.63;4.55;;;;;;;30.53;33.39;101160.34;3576064;40;20052;-67
2023/06/09 10:07:40;;;;;;;6.05;4.80;;;;;;;30.80;32.27;101143.66;3582749;40;20051;-67
2023/06/09 10:10:08;;;;;;;9.23;4.95;;;;;;;31.00;31.68;101146.31;3579418;39;20512;-67
2023/06/09 10:12:37;;;;;;;6.00;5.40;;;;;;;31.02;32.69;101129.41;3578185;39;20096;-67
2023/06/09 10:15:08;;;;;;;5.72;4.70;;;;;;;31.10;33.74;101132.78;3581027;39;20408;-67
2023/06/09 10:17:36;;;;;;;7.43;4.70;;;;;;;31.25;32.53;101139.97;3578926;40;20111;-67
2023/06/09 10:20:08;;;;;;;8.40;5.00;;;;;;;31.23;33.00;101135.47;3578472;40;20048;-68
2023/06/09 10:22:36;;;;;;;6.82;4.95;;;;;;;31.44;33.46;101134.31;3578096;40;20052;-68
2023/06/09 10:25:03;;;;;;;7.15;5.13;;;;;;;31.44;31.56;101136.22;3577235;40;20364;-68
2023/06/09 10:27:30;;;;;;;7.93;4.70;;;;;;;31.49;30.98;101130.00;3579467;40;20116;-68
2023/06/09 10:29:56;;;;;;;5.03;3.92;;;;;;;31.65;31.14;101130.28;3578852;39;20051;-67
2023/06/09 10:32:28;;;;;;;5.40;4.80;;;;;;;31.88;29.56;101132.47;3579121;40;20056;-68
2023/06/09 10:34:59;;;;;;;6.57;5.10;;;;;;;31.98;29.61;101137.50;3580728;40;20115;-68
2023/06/09 10:37:33;;;;;;;7.78;5.07;;;;;;;31.66;30.15;101125.59;3579725;40;20126;-68
2023/06/09 10:40:25;;;;;;;5.45;4.13;;;;;;;31.91;30.60;101131.16;3577932;40;20375;-68
2023/06/09 10:43:52;;;;;;;6.00;4.45;;;;;;;32.10;30.14;101137.59;3580572;40;20294;-67
2023/06/09 10:46:51;;;;;;;7.65;5.05;;;;;;;32.25;32.12;101128.88;3548495;40;20057;-67
2023/06/09 10:49:36;;;;;;;4.68;4.25;;;;;;;32.22;29.46;101124.59;3584194;40;20052;-67
2023/06/09 10:52:06;;;;;;;6.85;4.85;;;;;;;32.30;29.86;101093.72;3581127;40;20048;-67
2023/06/09 10:54:35;;;;;;;8.00;4.60;;;;;;;32.66;29.72;101121.78;3577577;40;20063;-68
2023/06/09 10:57:27;;;;;;;8.40;5.10;;;;;;;32.63;29.38;101119.47;3573021;40;20051;-68
2023/06/09 10:59:52;;;;;;;5.88;4.63;;;;;;;32.51;28.60;101114.69;3580624;40;20573;-67
2023/06/09 11:02:21;;;;;;;9.38;5.30;;;;;;;32.64;29.51;101116.47;3577706;40;20372;-68
2023/06/09 11:04:49;;;;;;;7.25;4.82;;;;;;;32.87;28.54;101124.06;3577560;40;20063;-67
2023/06/09 11:07:29;;;;;;;10.48;4.57;;;;;;;32.83;28.73;101120.06;3578390;39;20085;-67
2023/06/09 11:09:57;;;;;;;13.52;4.88;;;;;;;32.74;27.40;101113.97;3577961;39;20052;-66
2023/06/09 11:12:42;;;;;;;10.02;5.00;;;;;;;32.67;29.39;101109.53;3580802;39;20126;-67
2023/06/09 11:15:11;;;;;;;5.22;4.72;;;;;;;32.85;27.66;101106.72;3577776;40;20079;-67
2023/06/09 11:17:46;;;;;;;4.90;4.35;;;;;;;32.36;27.84;101003.72;3578531;40;20044;-67
2023/06/09 11:20:18;;;;;;;9.10;4.75;;;;;;;32.85;27.55;101070.53;3578909;40;20082;-67
2023/06/09 11:22:49;;;;;;;7.05;4.70;;;;;;;33.18;27.55;101111.00;3576980;40;20450;-67
2023/06/09 11:25:15;;;;;;;5.32;4.82;;;;;;;32.99;27.03;101101.88;3577548;39;20064;-67
2023/06/09 11:27:43;;;;;;;5.78;4.25;;;;;;;33.16;28.21;101097.31;3577455;40;20067;-68
2023/06/09 11:30:18;;;;;;;8.70;4.90;;;;;;;33.17;27.40;101087.84;3577498;39;20406;-67